Terminal Aerodrome Forecast
Issued by NWS Kansas City/Pleasant Hill, MO

Home | Current Version | Previous Version | Text Only | Print | Product List | Glossary On
Versions: 1 2 3 4 5 6 7 8 9 10 11 12 13 14 15 16 17 18 19 20
000
FTUS43 KEAX 021100
TAFMCI
TAF
KMCI 021120Z 0212/0312 14008KT P6SM BKN025 OVC040
     FM021400 19010KT P6SM SCT025 OVC040
     FM021700 32012KT P6SM VCTS OVC040CB
      TEMPO 0218/0222 4SM -TSRA BR BKN025CB
     FM022300 33008KT P6SM BKN020
     FM030500 32007KT P6SM SCT020=

USA.gov is the U.S. government's official web portal to all federal, state and local government web resources and services.